sensor_id;sensor_type;location;lat;lon;timestamp;pressure;altitude;pressure_sealevel;temperature;humidity
27202;BME280;14717;46.924;15.474;2022-12-07T00:00:27;97722.34;;;3.31;100.00
27202;BME280;14717;46.924;15.474;2022-12-07T00:02:53;97727.31;;;3.34;100.00
27202;BME280;14717;46.924;15.474;2022-12-07T00:05:18;97725.47;;;3.39;100.00
27202;BME280;14717;46.924;15.474;2022-12-07T00:07:43;97721.28;;;3.32;100.00
27202;BME280;14717;46.924;15.474;2022-12-07T00:10:09;97712.25;;;3.32;100.00
27202;BME280;14717;46.924;15.474;2022-12-07T00:12:34;97714.72;;;3.33;100.00
27202;BME280;14717;46.924;15.474;2022-12-07T00:14:59;97714.09;;;3.26;100.00
27202;BME280;14717;46.924;15.474;2022-12-07T00:17:25;97706.97;;;3.25;100.00
27202;BME280;14717;46.924;15.474;2022-12-07T00:19:50;97704.69;;;3.17;100.00
27202;BME280;14717;46.924;15.474;2022-12-07T00:22:15;97712.88;;;3.17;100.00
27202;BME280;14717;46.924;15.474;2022-12-07T00:24:41;97704.16;;;3.20;100.00
27202;BME280;14717;46.924;15.474;2022-12-07T00:27:06;97703.34;;;3.20;100.00
27202;BME280;14717;46.924;15.474;2022-12-07T00:29:31;97708.31;;;3.23;100.00
27202;BME280;14717;46.924;15.474;2022-12-07T00:31:57;97706.50;;;3.12;100.00
27202;BME280;14717;46.924;15.474;2022-12-07T00:34:22;97708.00;;;3.03;100.00
27202;BME280;14717;46.924;15.474;2022-12-07T00:36:48;97712.72;;;3.07;100.00
27202;BME280;14717;46.924;15.474;2022-12-07T00:39:13;97710.25;;;3.06;100.00
27202;BME280;14717;46.924;15.474;2022-12-07T00:41:39;97700.63;;;3.03;100.00
27202;BME280;14717;46.924;15.474;2022-12-07T00:44:04;97708.25;;;3.01;100.00
27202;BME280;14717;46.924;15.474;2022-12-07T00:46:29;97708.31;;;3.06;100.00
27202;BME280;14717;46.924;15.474;2022-12-07T00:48:55;97713.94;;;3.00;100.00
27202;BME280;14717;46.924;15.474;2022-12-07T00:51:22;97707.50;;;3.06;100.00
27202;BME280;14717;46.924;15.474;2022-12-07T00:53:49;97713.94;;;3.00;100.00
27202;BME280;14717;46.924;15.474;2022-12-07T00:56:25;97708.97;;;2.97;100.00
27202;BME280;14717;46.924;15.474;2022-12-07T00:58:59;97709.84;;;2.97;100.00
27202;BME280;14717;46.924;15.474;2022-12-07T01:01:28;97708.66;;;2.94;100.00
27202;BME280;14717;46.924;15.474;2022-12-07T01:03:53;97715.94;;;2.88;100.00
27202;BME280;14717;46.924;15.474;2022-12-07T01:06:21;97712.03;;;2.84;100.00
27202;BME280;14717;46.924;15.474;2022-12-07T01:08:47;97710.66;;;2.82;100.00
27202;BME280;14717;46.924;15.474;2022-12-07T01:11:16;97714.19;;;2.82;100.00
27202;BME280;14717;46.924;15.474;2022-12-07T01:13:43;97712.16;;;2.73;100.00
27202;BME280;14717;46.924;15.474;2022-12-07T01:16:11;97707.50;;;2.73;100.00
27202;BME280;14717;46.924;15.474;2022-12-07T01:18:38;97707.50;;;2.73;100.00
27202;BME280;14717;46.924;15.474;2022-12-07T01:21:12;97708.56;;;2.72;100.00
27202;BME280;14717;46.924;15.474;2022-12-07T01:23:38;97709.25;;;2.63;100.00
27202;BME280;14717;46.924;15.474;2022-12-07T01:26:11;97710.41;;;2.67;100.00
27202;BME280;14717;46.924;15.474;2022-12-07T01:28:37;97707.19;;;2.70;100.00
27202;BME280;14717;46.924;15.474;2022-12-07T01:31:05;97707.69;;;2.67;100.00
27202;BME280;14717;46.924;15.474;2022-12-07T01:33:34;97705.44;;;2.64;100.00
27202;BME280;14717;46.924;15.474;2022-12-07T01:36:22;97698.59;;;2.61;100.00
27202;BME280;14717;46.924;15.474;2022-12-07T01:38:47;97697.25;;;2.64;100.00
27202;BME280;14717;46.924;15.474;2022-12-07T01:41:14;97699.41;;;2.62;100.00
27202;BME280;14717;46.924;15.474;2022-12-07T01:44:18;97705.84;;;2.56;100.00
27202;BME280;14717;46.924;15.474;2022-12-07T01:46:53;97701.88;;;2.47;100.00
27202;BME280;14717;46.924;15.474;2022-12-07T01:49:35;97695.09;;;2.50;100.00
27202;BME280;14717;46.924;15.474;2022-12-07T01:54:43;97689.06;;;2.48;100.00
27202;BME280;14717;46.924;15.474;2022-12-07T01:57:11;97686.09;;;2.49;100.00
27202;BME280;14717;46.924;15.474;2022-12-07T01:59:39;97685.03;;;2.50;100.00
27202;BME280;14717;46.924;15.474;2022-12-07T02:02:09;97675.44;;;2.31;100.00
27202;BME280;14717;46.924;15.474;2022-12-07T02:04:35;97688.00;;;2.32;100.00
27202;BME280;14717;46.924;15.474;2022-12-07T02:07:02;97684.25;;;2.38;100.00
27202;BME280;14717;46.924;15.474;2022-12-07T02:09:28;97689.22;;;2.41;100.00
27202;BME280;14717;46.924;15.474;2022-12-07T02:11:54;97687.81;;;2.22;100.00
27202;BME280;14717;46.924;15.474;2022-12-07T02:14:20;97690.03;;;1.70;100.00
27202;BME280;14717;46.924;15.474;2022-12-07T02:19:48;97684.13;;;2.01;100.00
27202;BME280;14717;46.924;15.474;2022-12-07T02:22:34;97678.88;;;2.11;100.00
27202;BME280;14717;46.924;15.474;2022-12-07T02:28:09;97676.06;;;2.06;100.00
27202;BME280;14717;46.924;15.474;2022-12-07T02:30:42;97680.34;;;2.18;100.00
27202;BME280;14717;46.924;15.474;2022-12-07T02:33:32;97675.25;;;2.21;100.00
27202;BME280;14717;46.924;15.474;2022-12-07T02:38:39;97668.47;;;2.08;100.00
27202;BME280;14717;46.924;15.474;2022-12-07T02:41:16;97670.50;;;1.73;100.00
27202;BME280;14717;46.924;15.474;2022-12-07T02:44:07;97672.72;;;1.48;100.00
27202;BME280;14717;46.924;15.474;2022-12-07T02:46:41;97662.41;;;1.50;100.00
27202;BME280;14717;46.924;15.474;2022-12-07T02:49:07;97663.06;;;1.29;100.00
27202;BME280;14717;46.924;15.474;2022-12-07T02:51:34;97659.75;;;1.27;100.00
27202;BME280;14717;46.924;15.474;2022-12-07T02:54:12;97667.94;;;1.16;100.00
27202;BME280;14717;46.924;15.474;2022-12-07T03:16:10;97665.31;;;1.21;100.00
27202;BME280;14717;46.924;15.474;2022-12-07T03:18:42;97670.41;;;1.18;100.00
27202;BME280;14717;46.924;15.474;2022-12-07T03:21:14;97659.28;;;1.30;100.00
27202;BME280;14717;46.924;15.474;2022-12-07T03:23:42;97669.00;;;1.27;100.00
27202;BME280;14717;46.924;15.474;2022-12-07T03:26:11;97655.75;;;1.19;100.00
27202;BME280;14717;46.924;15.474;2022-12-07T03:28:43;97657.19;;;1.10;100.00
27202;BME280;14717;46.924;15.474;2022-12-07T03:31:18;97653.03;;;1.19;100.00
27202;BME280;14717;46.924;15.474;2022-12-07T03:37:11;97661.75;;;1.43;100.00
27202;BME280;14717;46.924;15.474;2022-12-07T03:39:13;97651.16;;;1.58;100.00
27202;BME280;14717;46.924;15.474;2022-12-07T03:41:42;97649.03;;;1.60;100.00
27202;BME280;14717;46.924;15.474;2022-12-07T03:44:08;97652.31;;;1.62;100.00
27202;BME280;14717;46.924;15.474;2022-12-07T03:46:44;97657.56;;;1.52;100.00
27202;BME280;14717;46.924;15.474;2022-12-07T03:52:21;97649.28;;;1.47;100.00
27202;BME280;14717;46.924;15.474;2022-12-07T03:55:34;97649.69;;;1.67;100.00
27202;BME280;14717;46.924;15.474;2022-12-07T03:57:34;97648.69;;;1.84;100.00
27202;BME280;14717;46.924;15.474;2022-12-07T04:00:04;97656.44;;;1.76;100.00
27202;BME280;14717;46.924;15.474;2022-12-07T04:02:29;97648.16;;;1.71;100.00
27202;BME280;14717;46.924;15.474;2022-12-07T04:04:55;97658.75;;;1.56;100.00
27202;BME280;14717;46.924;15.474;2022-12-07T04:07:21;97648.81;;;1.50;100.00
27202;BME280;14717;46.924;15.474;2022-12-07T04:09:46;97648.50;;;1.35;100.00
27202;BME280;14717;46.924;15.474;2022-12-07T04:12:12;97658.22;;;1.31;100.00
27202;BME280;14717;46.924;15.474;2022-12-07T04:14:37;97649.09;;;1.37;100.00
27202;BME280;14717;46.924;15.474;2022-12-07T04:17:03;97647.94;;;1.33;100.00
27202;BME280;14717;46.924;15.474;2022-12-07T04:19:30;97656.16;;;1.50;100.00
27202;BME280;14717;46.924;15.474;2022-12-07T04:21:58;97660.00;;;1.65;100.00
27202;BME280;14717;46.924;15.474;2022-12-07T04:24:24;97657.84;;;1.67;100.00
27202;BME280;14717;46.924;15.474;2022-12-07T04:26:49;97657.81;;;1.39;100.00
27202;BME280;14717;46.924;15.474;2022-12-07T04:29:16;97642.97;;;1.30;100.00
27202;BME280;14717;46.924;15.474;2022-12-07T04:31:42;97650.31;;;1.19;100.00
27202;BME280;14717;46.924;15.474;2022-12-07T04:34:08;97648.66;;;1.18;100.00
27202;BME280;14717;46.924;15.474;2022-12-07T04:36:34;97644.31;;;1.05;100.00
27202;BME280;14717;46.924;15.474;2022-12-07T04:39:00;97645.63;;;1.03;100.00
27202;BME280;14717;46.924;15.474;2022-12-07T04:41:26;97642.19;;;1.07;100.00
27202;BME280;14717;46.924;15.474;2022-12-07T04:43:56;97630.75;;;0.94;100.00
27202;BME280;14717;46.924;15.474;2022-12-07T04:46:23;97633.47;;;0.94;100.00
27202;BME280;14717;46.924;15.474;2022-12-07T04:48:50;97640.66;;;1.00;100.00
27202;BME280;14717;46.924;15.474;2022-12-07T04:51:19;97634.13;;;1.12;100.00
27202;BME280;14717;46.924;15.474;2022-12-07T04:53:45;97641.94;;;1.09;100.00
27202;BME280;14717;46.924;15.474;2022-12-07T04:56:10;97643.13;;;1.13;100.00
27202;BME280;14717;46.924;15.474;2022-12-07T04:58:35;97645.97;;;1.06;100.00
27202;BME280;14717;46.924;15.474;2022-12-07T05:01:01;97639.69;;;1.06;100.00
27202;BME280;14717;46.924;15.474;2022-12-07T05:03:26;97642.31;;;1.01;100.00
27202;BME280;14717;46.924;15.474;2022-12-07T05:05:51;97637.34;;;0.98;100.00
27202;BME280;14717;46.924;15.474;2022-12-07T05:08:17;97648.56;;;1.13;100.00
27202;BME280;14717;46.924;15.474;2022-12-07T05:10:42;97641.53;;;1.28;100.00
27202;BME280;14717;46.924;15.474;2022-12-07T05:13:07;97643.91;;;1.25;100.00
27202;BME280;14717;46.924;15.474;2022-12-07T05:15:33;97631.13;;;1.36;100.00
27202;BME280;14717;46.924;15.474;2022-12-07T05:17:58;97635.09;;;1.45;100.00
27202;BME280;14717;46.924;15.474;2022-12-07T05:20:24;97639.28;;;1.36;100.00
27202;BME280;14717;46.924;15.474;2022-12-07T05:22:49;97641.75;;;1.38;100.00
27202;BME280;14717;46.924;15.474;2022-12-07T05:25:14;97638.78;;;1.39;100.00
27202;BME280;14717;46.924;15.474;2022-12-07T05:27:40;97649.88;;;1.49;100.00
27202;BME280;14717;46.924;15.474;2022-12-07T05:30:06;97650.47;;;1.51;100.00
27202;BME280;14717;46.924;15.474;2022-12-07T05:32:31;97652.13;;;1.52;100.00
27202;BME280;14717;46.924;15.474;2022-12-07T05:34:57;97646.84;;;1.34;100.00
27202;BME280;14717;46.924;15.474;2022-12-07T05:37:22;97649.59;;;1.23;100.00
27202;BME280;14717;46.924;15.474;2022-12-07T05:39:48;97641.34;;;1.07;100.00
27202;BME280;14717;46.924;15.474;2022-12-07T05:42:13;97649.53;;;0.95;100.00
27202;BME280;14717;46.924;15.474;2022-12-07T05:44:45;97644.34;;;0.94;100.00
27202;BME280;14717;46.924;15.474;2022-12-07T05:47:12;97647.16;;;0.99;100.00
27202;BME280;14717;46.924;15.474;2022-12-07T05:49:38;97650.78;;;1.16;100.00
27202;BME280;14717;46.924;15.474;2022-12-07T05:52:04;97642.50;;;1.22;100.00
27202;BME280;14717;46.924;15.474;2022-12-07T05:54:29;97645.34;;;1.16;100.00
27202;BME280;14717;46.924;15.474;2022-12-07T05:56:55;97656.00;;;1.17;100.00
27202;BME280;14717;46.924;15.474;2022-12-07T05:59:21;97646.03;;;1.23;100.00
27202;BME280;14717;46.924;15.474;2022-12-07T06:02:04;97656.22;;;1.27;100.00
27202;BME280;14717;46.924;15.474;2022-12-07T06:04:33;97653.63;;;1.21;100.00
27202;BME280;14717;46.924;15.474;2022-12-07T06:06:59;97660.94;;;1.31;100.00
27202;BME280;14717;46.924;15.474;2022-12-07T06:09:26;97660.44;;;1.34;100.00
27202;BME280;14717;46.924;15.474;2022-12-07T06:11:53;97659.97;;;1.37;100.00
27202;BME280;14717;46.924;15.474;2022-12-07T06:14:37;97668.13;;;1.37;100.00
27202;BME280;14717;46.924;15.474;2022-12-07T06:17:03;97662.78;;;1.42;100.00
27202;BME280;14717;46.924;15.474;2022-12-07T06:19:28;97675.34;;;1.43;100.00
27202;BME280;14717;46.924;15.474;2022-12-07T06:21:54;97668.13;;;1.37;100.00
27202;BME280;14717;46.924;15.474;2022-12-07T06:24:20;97665.50;;;1.42;100.00
27202;BME280;14717;46.924;15.474;2022-12-07T06:26:46;97674.34;;;1.49;100.00
27202;BME280;14717;46.924;15.474;2022-12-07T06:29:12;97673.06;;;1.52;100.00
27202;BME280;14717;46.924;15.474;2022-12-07T06:31:38;97673.88;;;1.52;100.00
27202;BME280;14717;46.924;15.474;2022-12-07T06:34:06;97683.13;;;1.51;100.00
27202;BME280;14717;46.924;15.474;2022-12-07T06:36:32;97681.09;;;1.58;100.00
27202;BME280;14717;46.924;15.474;2022-12-07T06:38:57;97676.22;;;1.60;100.00
27202;BME280;14717;46.924;15.474;2022-12-07T06:41:23;97679.72;;;1.33;100.00
27202;BME280;14717;46.924;15.474;2022-12-07T06:43:48;97684.47;;;1.26;100.00
27202;BME280;14717;46.924;15.474;2022-12-07T06:46:15;97683.75;;;1.30;100.00
27202;BME280;14717;46.924;15.474;2022-12-07T06:48:41;97683.91;;;1.13;100.00
27202;BME280;14717;46.924;15.474;2022-12-07T06:51:07;97681.44;;;1.00;100.00
27202;BME280;14717;46.924;15.474;2022-12-07T06:53:32;97689.34;;;0.90;100.00
27202;BME280;14717;46.924;15.474;2022-12-07T06:55:57;97695.41;;;0.81;100.00
27202;BME280;14717;46.924;15.474;2022-12-07T06:58:23;97698.81;;;0.76;100.00
27202;BME280;14717;46.924;15.474;2022-12-07T07:00:49;97703.53;;;0.69;100.00
27202;BME280;14717;46.924;15.474;2022-12-07T07:03:15;97704.59;;;0.68;100.00
27202;BME280;14717;46.924;15.474;2022-12-07T07:05:42;97696.69;;;0.78;100.00
27202;BME280;14717;46.924;15.474;2022-12-07T07:08:07;97707.91;;;1.04;100.00
27202;BME280;14717;46.924;15.474;2022-12-07T07:10:33;97705.75;;;1.18;100.00
27202;BME280;14717;46.924;15.474;2022-12-07T07:12:58;97704.59;;;1.25;100.00
27202;BME280;14717;46.924;15.474;2022-12-07T07:15:24;97700.31;;;1.18;100.00
27202;BME280;14717;46.924;15.474;2022-12-07T07:17:49;97698.31;;;1.13;100.00
27202;BME280;14717;46.924;15.474;2022-12-07T07:20:14;97695.00;;;1.11;100.00
27202;BME280;14717;46.924;15.474;2022-12-07T07:22:40;97705.06;;;1.11;100.00
27202;BME280;14717;46.924;15.474;2022-12-07T07:25:06;97707.53;;;1.24;100.00
27202;BME280;14717;46.924;15.474;2022-12-07T07:27:32;97708.94;;;1.37;100.00
27202;BME280;14717;46.924;15.474;2022-12-07T07:29:57;97720.63;;;1.49;100.00
27202;BME280;14717;46.924;15.474;2022-12-07T07:32:22;97716.47;;;1.58;100.00
27202;BME280;14717;46.924;15.474;2022-12-07T07:34:48;97713.63;;;1.65;100.00
27202;BME280;14717;46.924;15.474;2022-12-07T07:37:13;97711.34;;;1.73;100.00
27202;BME280;14717;46.924;15.474;2022-12-07T07:39:39;97710.16;;;1.19;100.00
27202;BME280;14717;46.924;15.474;2022-12-07T07:42:05;97712.53;;;1.04;100.00
27202;BME280;14717;46.924;15.474;2022-12-07T07:44:30;97715.94;;;1.11;100.00
27202;BME280;14717;46.924;15.474;2022-12-07T07:46:56;97708.38;;;1.13;100.00
27202;BME280;14717;46.924;15.474;2022-12-07T07:49:21;97704.19;;;1.33;100.00
27202;BME280;14717;46.924;15.474;2022-12-07T07:51:46;97710.59;;;1.38;100.00
27202;BME280;14717;46.924;15.474;2022-12-07T07:54:12;97717.78;;;1.44;100.00
27202;BME280;14717;46.924;15.474;2022-12-07T07:56:37;97723.41;;;1.66;100.00
27202;BME280;14717;46.924;15.474;2022-12-07T07:59:02;97727.78;;;1.78;100.00
27202;BME280;14717;46.924;15.474;2022-12-07T08:01:28;97723.28;;;1.72;100.00
27202;BME280;14717;46.924;15.474;2022-12-07T08:03:53;97713.53;;;1.87;100.00
27202;BME280;14717;46.924;15.474;2022-12-07T08:06:18;97716.94;;;1.55;100.00
27202;BME280;14717;46.924;15.474;2022-12-07T08:08:44;97717.91;;;1.49;100.00
27202;BME280;14717;46.924;15.474;2022-12-07T08:11:09;97718.88;;;1.43;100.00
27202;BME280;14717;46.924;15.474;2022-12-07T08:13:35;97723.53;;;1.70;100.00
27202;BME280;14717;46.924;15.474;2022-12-07T08:16:06;97722.53;;;1.88;100.00
27202;BME280;14717;46.924;15.474;2022-12-07T08:18:35;97731.56;;;1.77;100.00
27202;BME280;14717;46.924;15.474;2022-12-07T08:21:02;97724.00;;;1.67;100.00
27202;BME280;14717;46.924;15.474;2022-12-07T08:23:28;97717.63;;;1.62;100.00
27202;BME280;14717;46.924;15.474;2022-12-07T08:25:53;97725.22;;;1.60;100.00
27202;BME280;14717;46.924;15.474;2022-12-07T08:28:18;97725.72;;;1.46;100.00
27202;BME280;14717;46.924;15.474;2022-12-07T08:30:44;97724.75;;;1.52;100.00
27202;BME280;14717;46.924;15.474;2022-12-07T08:33:10;97726.00;;;1.72;100.00
27202;BME280;14717;46.924;15.474;2022-12-07T08:35:35;97734.03;;;1.78;100.00
27202;BME280;14717;46.924;15.474;2022-12-07T08:38:03;97735.25;;;1.99;100.00
27202;BME280;14717;46.924;15.474;2022-12-07T08:40:28;97737.22;;;2.14;100.00
27202;BME280;14717;46.924;15.474;2022-12-07T08:42:54;97738.84;;;2.27;100.00
27202;BME280;14717;46.924;15.474;2022-12-07T08:45:20;97734.53;;;2.31;100.00
27202;BME280;14717;46.924;15.474;2022-12-07T08:47:59;97742.78;;;2.19;100.00
27202;BME280;14717;46.924;15.474;2022-12-07T08:50:27;97742.78;;;2.19;100.00
27202;BME280;14717;46.924;15.474;2022-12-07T08:52:55;97736.84;;;2.22;100.00
27202;BME280;14717;46.924;15.474;2022-12-07T08:55:21;97749.09;;;2.36;100.00
27202;BME280;14717;46.924;15.474;2022-12-07T08:57:47;97740.66;;;2.38;100.00
27202;BME280;14717;46.924;15.474;2022-12-07T09:00:13;97754.63;;;2.41;100.00
27202;BME280;14717;46.924;15.474;2022-12-07T09:02:39;97750.50;;;2.39;100.00
27202;BME280;14717;46.924;15.474;2022-12-07T09:05:05;97750.19;;;2.35;100.00
27202;BME280;14717;46.924;15.474;2022-12-07T09:07:32;97762.91;;;2.18;100.00
27202;BME280;14717;46.924;15.474;2022-12-07T09:09:58;97763.88;;;2.12;100.00
27202;BME280;14717;46.924;15.474;2022-12-07T09:12:23;97770.28;;;2.07;100.00
27202;BME280;14717;46.924;15.474;2022-12-07T09:14:49;97765.44;;;1.69;100.00
27202;BME280;14717;46.924;15.474;2022-12-07T09:17:14;97763.75;;;1.80;100.00
27202;BME280;14717;46.924;15.474;2022-12-07T09:19:39;97762.69;;;2.09;100.00
27202;BME280;14717;46.924;15.474;2022-12-07T09:22:06;97757.44;;;2.18;100.00
27202;BME280;14717;46.924;15.474;2022-12-07T09:24:32;97759.31;;;2.29;100.00
27202;BME280;14717;46.924;15.474;2022-12-07T09:26:58;97760.47;;;2.33;100.00
27202;BME280;14717;46.924;15.474;2022-12-07T09:29:23;97752.31;;;2.50;100.00
27202;BME280;14717;46.924;15.474;2022-12-07T09:31:49;97753.50;;;2.53;100.00
27202;BME280;14717;46.924;15.474;2022-12-07T09:34:14;97755.00;;;2.61;100.00
27202;BME280;14717;46.924;15.474;2022-12-07T09:36:40;97753.75;;;2.24;100.00
27202;BME280;14717;46.924;15.474;2022-12-07T09:39:05;97747.13;;;2.48;100.00
27202;BME280;14717;46.924;15.474;2022-12-07T09:41:31;97760.28;;;2.67;100.00
27202;BME280;14717;46.924;15.474;2022-12-07T09:44:13;97756.09;;;2.76;100.00
27202;BME280;14717;46.924;15.474;2022-12-07T09:46:41;97750.56;;;2.71;100.00
27202;BME280;14717;46.924;15.474;2022-12-07T09:49:31;97748.84;;;2.82;100.00
27202;BME280;14717;46.924;15.474;2022-12-07T09:54:35;97749.63;;;2.66;100.00
27202;BME280;14717;46.924;15.474;2022-12-07T09:57:02;97742.16;;;2.73;100.00
27202;BME280;14717;46.924;15.474;2022-12-07T09:59:27;97734.72;;;2.85;100.00
27202;BME280;14717;46.924;15.474;2022-12-07T10:01:53;97737.13;;;2.97;100.00
27202;BME280;14717;46.924;15.474;2022-12-07T10:04:24;97737.44;;;3.01;100.00
27202;BME280;14717;46.924;15.474;2022-12-07T10:06:51;97740.25;;;3.06;100.00
27202;BME280;14717;46.924;15.474;2022-12-07T10:09:19;97734.63;;;3.12;100.00
27202;BME280;14717;46.924;15.474;2022-12-07T10:14:32;97717.56;;;3.05;100.00
27202;BME280;14717;46.924;15.474;2022-12-07T10:16:58;97721.38;;;3.21;100.00
27202;BME280;14717;46.924;15.474;2022-12-07T10:19:30;97721.38;;;3.21;100.00
27202;BME280;14717;46.924;15.474;2022-12-07T10:22:00;97712.16;;;3.27;100.00
27202;BME280;14717;46.924;15.474;2022-12-07T10:24:26;97715.56;;;3.34;100.00
27202;BME280;14717;46.924;15.474;2022-12-07T10:26:52;97715.75;;;3.27;100.00
27202;BME280;14717;46.924;15.474;2022-12-07T10:29:28;97713.66;;;3.34;99.95
27202;BME280;14717;46.924;15.474;2022-12-07T10:32:08;97709.31;;;3.00;100.00
27202;BME280;14717;46.924;15.474;2022-12-07T10:34:50;97705.31;;;3.24;100.00
27202;BME280;14717;46.924;15.474;2022-12-07T10:37:19;97704.91;;;3.32;100.00
27202;BME280;14717;46.924;15.474;2022-12-07T10:39:52;97700.38;;;3.21;100.00
27202;BME280;14717;46.924;15.474;2022-12-07T10:42:19;97704.88;;;2.95;100.00
27202;BME280;14717;46.924;15.474;2022-12-07T10:44:45;97706.34;;;2.86;100.00
27202;BME280;14717;46.924;15.474;2022-12-07T10:50:17;97699.97;;;2.96;100.00
27202;BME280;14717;46.924;15.474;2022-12-07T11:00:31;97681.75;;;3.56;100.00
27202;BME280;14717;46.924;15.474;2022-12-07T11:10:47;97675.09;;;3.89;100.00
27202;BME280;14717;46.924;15.474;2022-12-07T11:21:56;97670.94;;;3.66;100.00
27202;BME280;14717;46.924;15.474;2022-12-07T11:29:47;97672.22;;;3.37;100.00
27202;BME280;14717;46.924;15.474;2022-12-07T11:37:57;97670.91;;;3.23;100.00
27202;BME280;14717;46.924;15.474;2022-12-07T11:40:34;97666.50;;;3.17;100.00
27202;BME280;14717;46.924;15.474;2022-12-07T11:43:11;97673.25;;;3.15;100.00
27202;BME280;14717;46.924;15.474;2022-12-07T11:45:42;97670.28;;;3.16;100.00
27202;BME280;14717;46.924;15.474;2022-12-07T11:48:17;97651.38;;;3.31;100.00
27202;BME280;14717;46.924;15.474;2022-12-07T11:50:50;97649.28;;;3.17;100.00
27202;BME280;14717;46.924;15.474;2022-12-07T11:53:46;97652.72;;;3.29;100.00
27202;BME280;14717;46.924;15.474;2022-12-07T11:56:19;97636.75;;;3.37;100.00
27202;BME280;14717;46.924;15.474;2022-12-07T11:58:54;97638.88;;;3.35;100.00
27202;BME280;14717;46.924;15.474;2022-12-07T12:01:45;97645.13;;;3.31;100.00
27202;BME280;14717;46.924;15.474;2022-12-07T12:04:29;97631.84;;;3.39;100.00
27202;BME280;14717;46.924;15.474;2022-12-07T12:06:56;97634.59;;;3.60;100.00
27202;BME280;14717;46.924;15.474;2022-12-07T12:09:47;97629.66;;;3.83;100.00
27202;BME280;14717;46.924;15.474;2022-12-07T12:18:27;97628.06;;;3.66;100.00
27202;BME280;14717;46.924;15.474;2022-12-07T12:21:10;97627.03;;;3.46;100.00
27202;BME280;14717;46.924;15.474;2022-12-07T12:26:23;97637.81;;;3.36;100.00
27202;BME280;14717;46.924;15.474;2022-12-07T12:33:51;97634.63;;;3.86;100.00
27202;BME280;14717;46.924;15.474;2022-12-07T12:47:04;97631.09;;;4.17;100.00
27202;BME280;14717;46.924;15.474;2022-12-07T12:50:15;97619.31;;;4.12;100.00
27202;BME280;14717;46.924;15.474;2022-12-07T12:57:32;97617.03;;;4.04;100.00
27202;BME280;14717;46.924;15.474;2022-12-07T12:59:59;97621.13;;;4.01;100.00
27202;BME280;14717;46.924;15.474;2022-12-07T13:15:38;97619.75;;;4.30;100.00
27202;BME280;14717;46.924;15.474;2022-12-07T13:20:56;97608.69;;;4.46;100.00
27202;BME280;14717;46.924;15.474;2022-12-07T13:23:25;97606.72;;;4.42;100.00
27202;BME280;14717;46.924;15.474;2022-12-07T13:26:00;97601.53;;;4.76;100.00
27202;BME280;14717;46.924;15.474;2022-12-07T13:28:33;97605.50;;;4.90;100.00
27202;BME280;14717;46.924;15.474;2022-12-07T13:33:35;97611.66;;;5.17;99.06
27202;BME280;14717;46.924;15.474;2022-12-07T13:36:01;97611.13;;;5.15;98.98
27202;BME280;14717;46.924;15.474;2022-12-07T13:38:32;97606.78;;;5.24;97.81
27202;BME280;14717;46.924;15.474;2022-12-07T13:41:16;97601.59;;;5.27;98.03
27202;BME280;14717;46.924;15.474;2022-12-07T13:43:50;97608.41;;;5.20;97.23
27202;BME280;14717;46.924;15.474;2022-12-07T13:46:17;97616.63;;;5.20;97.58
27202;BME280;14717;46.924;15.474;2022-12-07T13:48:46;97611.09;;;5.10;98.13
27202;BME280;14717;46.924;15.474;2022-12-07T13:51:22;97613.88;;;5.20;98.66
27202;BME280;14717;46.924;15.474;2022-12-07T13:53:49;97614.41;;;5.17;98.48
27202;BME280;14717;46.924;15.474;2022-12-07T13:56:15;97607.34;;;5.26;98.86
27202;BME280;14717;46.924;15.474;2022-12-07T13:58:41;97609.28;;;5.30;98.06
27202;BME280;14717;46.924;15.474;2022-12-07T14:01:07;97618.38;;;5.36;97.74
27202;BME280;14717;46.924;15.474;2022-12-07T14:03:34;97618.91;;;5.38;97.96
27202;BME280;14717;46.924;15.474;2022-12-07T14:08:43;97615.06;;;5.39;98.62
27202;BME280;14717;46.924;15.474;2022-12-07T14:11:14;97607.44;;;5.41;97.91
27202;BME280;14717;46.924;15.474;2022-12-07T14:13:56;97609.53;;;5.29;98.10
27202;BME280;14717;46.924;15.474;2022-12-07T14:16:24;97615.88;;;5.34;98.19
27202;BME280;14717;46.924;15.474;2022-12-07T14:18:53;97621.09;;;5.36;97.70
27202;BME280;14717;46.924;15.474;2022-12-07T14:21:22;97622.16;;;5.30;98.52
27202;BME280;14717;46.924;15.474;2022-12-07T14:24:19;97628.16;;;5.27;98.82
27202;BME280;14717;46.924;15.474;2022-12-07T14:26:49;97622.06;;;5.15;99.71
27202;BME280;14717;46.924;15.474;2022-12-07T14:31:53;97630.06;;;5.26;99.54
27202;BME280;14717;46.924;15.474;2022-12-07T14:34:20;97630.00;;;5.11;99.44
27202;BME280;14717;46.924;15.474;2022-12-07T14:36:45;97633.25;;;5.08;100.00
27202;BME280;14717;46.924;15.474;2022-12-07T14:39:11;97634.50;;;4.96;100.00
27202;BME280;14717;46.924;15.474;2022-12-07T14:41:36;97638.91;;;4.97;100.00
27202;BME280;14717;46.924;15.474;2022-12-07T14:44:22;97636.72;;;4.99;100.00
27202;BME280;14717;46.924;15.474;2022-12-07T14:46:49;97640.56;;;4.98;100.00
27202;BME280;14717;46.924;15.474;2022-12-07T14:49:14;97643.78;;;4.90;100.00
27202;BME280;14717;46.924;15.474;2022-12-07T14:51:41;97647.00;;;4.82;100.00
27202;BME280;14717;46.924;15.474;2022-12-07T14:54:16;97655.47;;;4.81;100.00
27202;BME280;14717;46.924;15.474;2022-12-07T14:56:43;97656.88;;;4.83;100.00
27202;BME280;14717;46.924;15.474;2022-12-07T14:59:09;97648.13;;;4.86;100.00
27202;BME280;14717;46.924;15.474;2022-12-07T15:01:35;97650.91;;;4.91;100.00
27202;BME280;14717;46.924;15.474;2022-12-07T15:04:01;97658.59;;;4.94;100.00
27202;BME280;14717;46.924;15.474;2022-12-07T15:06:26;97656.38;;;4.91;99.87
27202;BME280;14717;46.924;15.474;2022-12-07T15:08:51;97653.38;;;4.93;100.00
27202;BME280;14717;46.924;15.474;2022-12-07T15:11:17;97650.59;;;4.88;100.00